Información del aeropuerto LEJR

Información de pista
Pista 02 Longitud 7546 ft Anchura 148 ft
Elevación 68 ft Umbral 0 ft Rumbo 21
Pista 20 Longitud 7546 ft Anchura 148 ft
Elevación 93 ft Umbral 0 ft Rumbo 201
Frecuencias del aeropuerto
Tipo APP Nombre APP Frecuencia 128.5 MHZ
Tipo GND Nombre GND Frecuencia 121.6 MHZ
Tipo TWR Nombre TWR Frecuencia 118.55 MHZ
Radioayudas del aeropuerto
Tipo NDB Nombre Jerez Frecuencia 433 KHZ
Tipo VOR-DME Nombre Jerez Frecuencia 113000 KHZ
Información meteorológica del aeropuerto y NOTAM
ADDS - METARS form results

(1450 UTC 24 November 2020)
Data provider http://aviationweather.gov/metar/data/
 
METAR text: LEJR 241430Z 17007KT 120V210 9999 BKN038 20/12 Q1020
Conditions at: LEJR (JEREZ (CIV/MIL) , ES) observed 1430 UTC 24 November 2020
Temperature: 20.0°C (68°F)
Dewpoint: 12.0°C (54°F) [RH = 60%]
Pressure (altimeter): 30.12 inches Hg (1020.0 mb)
Winds: from the S (170 degrees) at 8 MPH (7 knots; 3.6 m/s)
Visibility: 6 or more miles (10+ km)
Ceiling: 3800 feet AGL
Clouds: broken clouds at 3800 feet AGL
Weather: no significant weather observed at this time

METAR text: LEJR 241400Z 17009KT 120V200 9999 SCT038 21/12 Q1021
Conditions at: LEJR (JEREZ (CIV/MIL) , ES) observed 1400 UTC 24 November 2020
Temperature: 21.0°C (70°F)
Dewpoint: 12.0°C (54°F) [RH = 56%]
Pressure (altimeter): 30.15 inches Hg (1021.0 mb)
Winds: from the S (170 degrees) at 10 MPH (9 knots; 4.6 m/s)
Visibility: 6 or more miles (10+ km)
Ceiling: at least 12,000 feet AGL
Clouds: scattered clouds at 3800 feet AGL
Weather: no significant weather observed at this time

Forecast for: LEJR (JEREZ (CIV/MIL) , ES)
Text: TAF LEJR 241100Z 2412/2512 18009KT CAVOK TX22/2414Z TN08/2502Z
Forecast period: 1200 UTC 24 November 2020 to 1200 UTC 25 November 2020
Forecast type: FROM: standard forecast or significant change
Winds: from the S (180 degrees) at 10 MPH (9 knots; 4.6 m/s)
Visibility: 6 or more miles (10+ km)
Ceiling: unknown
Clouds: missing
Weather: no significant weather forecast for this period
Text: TEMPO 2504/2512 3000 RA BR BKN010
Forecast period: 0400 to 1200 UTC 25 November 2020
Forecast type: TEMPORARY: The following changes expected for less than half the time period
Visibility: 1.86 miles (2.99 km)
Ceiling: 1000 feet AGL
Clouds: broken clouds at 1000 feet AGL
Weather: RA BR  (moderate rain, mist)